Time;durP1;ratioP1;P1;durP2;ratioP2;P2;SDS_P1;SDS_P2;PMS_P1;PMS_P2;Temp;Humidity;BMP_temperature;BMP_pressure;BME280_temperature;BME280_humidity;BME280_pressure;Samples;Min_cycle;Max_cycle;Signal;HPM_P1;HPM_P2
2023/04/27 00:01:33;;;;;;;9.10;3.38;;;5.70;99.90;;;;;;5094248;28;20032;-78
2023/04/27 00:04:00;;;;;;;9.90;4.13;;;5.80;99.90;;;;;;5094457;28;20031;-77
2023/04/27 00:06:26;;;;;;;8.57;4.53;;;5.70;99.90;;;;;;5094540;28;20024;-77
2023/04/27 00:08:52;;;;;;;7.22;3.83;;;5.80;99.90;;;;;;5094405;28;20030;-77
2023/04/27 00:11:18;;;;;;;10.20;3.17;;;6.00;99.90;;;;;;5095184;28;20076;-78
2023/04/27 00:13:43;;;;;;;8.73;3.70;;;5.90;99.90;;;;;;5094350;28;20475;-77
2023/04/27 00:16:09;;;;;;;5.40;3.13;;;6.00;99.90;;;;;;5076266;28;20366;-78
2023/04/27 00:18:35;;;;;;;8.23;4.10;;;6.00;99.90;;;;;;5094213;28;20024;-77
2023/04/27 00:21:01;;;;;;;9.32;3.78;;;6.00;99.90;;;;;;5094003;28;20035;-78
2023/04/27 00:23:27;;;;;;;8.48;4.18;;;6.00;99.90;;;;;;5094038;28;20028;-78
2023/04/27 00:25:53;;;;;;;14.77;3.05;;;6.00;99.90;;;;;;5093721;28;20103;-78
2023/04/27 00:28:18;;;;;;;7.75;3.97;;;6.00;99.90;;;;;;5093741;28;20044;-77
2023/04/27 00:30:44;;;;;;;6.68;3.47;;;5.90;99.90;;;;;;5093957;28;20031;-77
2023/04/27 00:33:10;;;;;;;7.22;3.10;;;5.80;99.90;;;;;;5094076;28;20477;-77
2023/04/27 00:35:36;;;;;;;11.02;3.50;;;5.90;99.90;;;;;;5094284;28;20027;-77
2023/04/27 00:38:01;;;;;;;10.02;3.50;;;5.80;99.90;;;;;;5093610;28;20095;-78
2023/04/27 00:40:27;;;;;;;10.13;3.83;;;5.90;99.90;;;;;;5093846;28;20062;-77
2023/04/27 00:42:53;;;;;;;9.70;3.45;;;5.80;99.90;;;;;;5094145;28;20035;-78
2023/04/27 00:45:19;;;;;;;7.60;3.30;;;5.80;99.90;;;;;;5093953;28;20052;-77
2023/04/27 00:47:45;;;;;;;6.93;3.30;;;5.70;99.90;;;;;;5085259;28;20410;-77
2023/04/27 00:50:11;;;;;;;10.90;2.97;;;5.70;99.90;;;;;;5094371;28;20028;-77
2023/04/27 00:52:38;;;;;;;8.82;3.50;;;5.70;99.90;;;;;;5094096;28;20442;-77
2023/04/27 00:55:04;;;;;;;10.25;4.22;;;5.70;99.90;;;;;;5074811;28;20102;-77
2023/04/27 00:57:30;;;;;;;8.45;3.95;;;5.60;99.90;;;;;;5093759;28;20111;-78
2023/04/27 00:59:58;;;;;;;6.95;3.00;;;5.60;99.90;;;;;;5094207;28;20060;-77
2023/04/27 01:02:25;;;;;;;8.43;3.38;;;5.60;99.90;;;;;;5090873;28;20036;-77
2023/04/27 01:04:52;;;;;;;7.78;3.40;;;5.50;99.90;;;;;;5093994;28;20027;-77
2023/04/27 01:07:18;;;;;;;7.65;2.80;;;5.50;99.90;;;;;;5090545;28;20055;-78
2023/04/27 01:09:44;;;;;;;11.63;3.70;;;5.50;99.90;;;;;;5093936;28;20082;-77
2023/04/27 01:12:10;;;;;;;10.23;3.85;;;5.40;99.90;;;;;;5094176;28;20024;-78
2023/04/27 01:14:36;;;;;;;6.82;2.90;;;5.40;99.90;;;;;;5094565;28;20034;-78
2023/04/27 01:17:01;;;;;;;14.15;5.30;;;5.50;99.90;;;;;;5075786;28;20077;-77
2023/04/27 01:19:27;;;;;;;8.43;3.67;;;5.40;99.90;;;;;;5076110;28;20115;-75
2023/04/27 01:21:53;;;;;;;10.30;4.15;;;5.30;99.90;;;;;;5094008;28;20078;-77
2023/04/27 01:24:19;;;;;;;16.63;3.85;;;5.40;99.90;;;;;;5094031;28;20036;-75
2023/04/27 01:26:45;;;;;;;10.55;3.58;;;5.30;99.90;;;;;;5094057;28;20026;-76
2023/04/27 01:29:11;;;;;;;8.00;3.50;;;5.40;99.90;;;;;;5093992;28;20027;-76
2023/04/27 01:31:37;;;;;;;8.80;4.05;;;5.40;99.90;;;;;;5093974;28;20028;-76
2023/04/27 01:34:03;;;;;;;6.15;3.20;;;5.50;99.90;;;;;;5075739;28;20020;-76
2023/04/27 01:36:30;;;;;;;9.95;3.60;;;5.40;99.90;;;;;;5092768;28;20056;-76
2023/04/27 01:38:56;;;;;;;9.38;3.47;;;5.40;99.90;;;;;;5093314;28;20110;-76
2023/04/27 01:41:22;;;;;;;7.15;3.10;;;5.40;99.90;;;;;;5089253;28;20122;-76
2023/04/27 01:43:48;;;;;;;17.95;4.20;;;5.50;99.90;;;;;;5092928;28;20446;-76
2023/04/27 01:46:14;;;;;;;18.80;5.30;;;5.40;99.90;;;;;;5092892;28;20447;-75
2023/04/27 01:48:40;;;;;;;17.65;6.00;;;5.40;99.90;;;;;;5093201;28;20020;-76
2023/04/27 01:51:06;;;;;;;22.88;7.75;;;5.40;99.90;;;;;;5092551;28;20446;-76
2023/04/27 01:53:33;;;;;;;19.10;5.72;;;5.30;99.90;;;;;;5092604;28;20028;-76
2023/04/27 01:55:59;;;;;;;11.23;3.55;;;5.20;99.90;;;;;;5093338;28;20024;-77
2023/04/27 01:58:25;;;;;;;14.30;4.95;;;5.10;99.90;;;;;;5074436;28;20028;-75
2023/04/27 02:00:51;;;;;;;20.50;7.53;;;5.30;99.90;;;;;;5092391;28;20028;-77
2023/04/27 02:03:16;;;;;;;14.13;6.05;;;5.30;99.90;;;;;;5092732;28;20024;-77
2023/04/27 02:05:42;;;;;;;19.63;7.43;;;5.30;99.90;;;;;;5092594;28;20095;-75
2023/04/27 02:08:08;;;;;;;29.75;10.95;;;5.40;99.90;;;;;;5093460;28;20024;-76
2023/04/27 02:10:35;;;;;;;15.48;5.97;;;5.40;99.90;;;;;;5093685;28;20106;-77
2023/04/27 02:13:01;;;;;;;12.02;6.72;;;5.40;99.90;;;;;;5093237;28;20129;-76
2023/04/27 02:15:27;;;;;;;13.57;5.85;;;5.40;99.90;;;;;;5075335;28;20023;-76
2023/04/27 02:17:53;;;;;;;13.95;5.28;;;5.50;99.90;;;;;;5093664;28;20130;-77
2023/04/27 02:20:19;;;;;;;15.65;5.75;;;5.60;99.90;;;;;;5093153;28;20118;-76
2023/04/27 02:22:44;;;;;;;10.90;5.88;;;5.50;99.90;;;;;;5093505;28;20035;-76
2023/04/27 02:25:11;;;;;;;10.15;5.35;;;5.60;99.90;;;;;;5093452;28;20031;-76
2023/04/27 02:27:38;;;;;;;15.93;7.97;;;5.60;99.90;;;;;;5093065;28;20024;-76
2023/04/27 02:30:05;;;;;;;9.65;5.40;;;5.70;99.90;;;;;;5093164;28;20066;-75
2023/04/27 02:32:32;;;;;;;13.70;6.13;;;5.60;99.90;;;;;;5093064;28;20031;-76
2023/04/27 02:34:57;;;;;;;16.20;6.25;;;5.60;99.90;;;;;;5093133;28;20050;-76
2023/04/27 02:37:23;;;;;;;11.70;5.72;;;5.50;99.90;;;;;;5092895;28;20020;-75
2023/04/27 02:39:49;;;;;;;9.57;5.60;;;5.60;99.90;;;;;;5073877;28;20044;-76
2023/04/27 02:42:15;;;;;;;17.65;5.18;;;5.60;99.90;;;;;;5092435;28;20020;-76
2023/04/27 02:44:41;;;;;;;16.17;6.13;;;5.60;99.90;;;;;;5074496;28;20024;-77
2023/04/27 02:47:07;;;;;;;15.60;6.03;;;5.60;99.90;;;;;;5087463;28;20048;-76
2023/04/27 02:49:33;;;;;;;20.05;6.28;;;5.60;99.90;;;;;;5096030;28;20058;-76
2023/04/27 02:51:58;;;;;;;16.33;7.20;;;5.60;99.90;;;;;;5096186;28;20374;-77
2023/04/27 02:54:24;;;;;;;24.63;7.47;;;5.60;99.90;;;;;;5077459;28;20027;-76
2023/04/27 02:56:50;;;;;;;33.10;8.18;;;5.50;99.90;;;;;;5096364;28;20028;-76
2023/04/27 02:59:16;;;;;;;28.50;8.00;;;5.50;99.90;;;;;;5077538;28;20030;-77
2023/04/27 03:01:42;;;;;;;30.17;9.55;;;5.50;99.90;;;;;;5095395;28;20074;-76
2023/04/27 03:04:07;;;;;;;25.42;8.43;;;5.40;99.90;;;;;;5096020;28;20059;-76
2023/04/27 03:06:33;;;;;;;21.80;7.47;;;5.30;99.90;;;;;;5096144;28;20496;-76
2023/04/27 03:08:59;;;;;;;11.68;5.63;;;5.20;99.90;;;;;;5094822;28;20411;-76
2023/04/27 03:11:25;;;;;;;12.95;5.70;;;5.30;99.90;;;;;;5095471;28;20024;-76
2023/04/27 03:13:51;;;;;;;13.48;5.40;;;5.30;99.90;;;;;;5095491;28;20366;-76
2023/04/27 03:16:17;;;;;;;17.65;6.68;;;5.20;99.90;;;;;;5095372;28;20469;-77
2023/04/27 03:18:43;;;;;;;23.23;7.57;;;5.20;99.90;;;;;;5096016;28;20024;-76
2023/04/27 03:21:10;;;;;;;12.20;6.13;;;5.20;99.90;;;;;;5095121;28;20035;-76
2023/04/27 03:23:37;;;;;;;11.07;5.43;;;5.20;99.90;;;;;;5070621;28;20048;-75
2023/04/27 03:26:10;;;;;;;13.50;7.05;;;5.00;99.90;;;;;;5095325;28;20090;-76
2023/04/27 03:28:37;;;;;;;9.73;4.53;;;5.00;99.90;;;;;;5089422;28;20020;-76
2023/04/27 03:31:07;;;;;;;12.90;4.57;;;5.00;99.90;;;;;;5095539;28;20028;-76
2023/04/27 03:33:33;;;;;;;7.50;4.22;;;5.00;99.90;;;;;;5095114;28;20462;-76
2023/04/27 03:35:59;;;;;;;7.90;5.05;;;5.00;99.90;;;;;;5095086;28;20066;-76
2023/04/27 03:38:26;;;;;;;12.88;4.57;;;4.90;99.90;;;;;;5095409;28;20020;-75
2023/04/27 03:40:52;;;;;;;9.32;4.28;;;4.90;99.90;;;;;;5094183;28;20058;-76
2023/04/27 03:43:20;;;;;;;10.35;4.57;;;4.90;99.90;;;;;;5076348;28;20020;-75
2023/04/27 03:45:46;;;;;;;9.43;4.93;;;4.90;99.90;;;;;;5095392;28;20018;-76
2023/04/27 03:48:13;;;;;;;15.38;5.30;;;4.90;99.90;;;;;;5095205;28;20028;-76
2023/04/27 03:50:38;;;;;;;11.50;5.55;;;4.90;99.90;;;;;;5095064;28;20043;-76
2023/04/27 03:53:05;;;;;;;9.90;4.70;;;4.90;99.90;;;;;;5095479;28;20102;-76
2023/04/27 03:55:31;;;;;;;12.05;4.85;;;4.80;99.90;;;;;;5095428;28;20020;-75
2023/04/27 03:57:57;;;;;;;16.35;5.22;;;4.80;99.90;;;;;;5095481;28;20020;-75
2023/04/27 04:00:23;;;;;;;9.02;4.47;;;4.80;99.90;;;;;;5080370;28;20105;-76
2023/04/27 04:02:50;;;;;;;10.10;4.38;;;4.90;99.90;;;;;;5085027;28;20438;-75
2023/04/27 04:05:17;;;;;;;9.95;4.47;;;4.90;99.90;;;;;;5094455;28;20024;-76
2023/04/27 04:07:43;;;;;;;12.05;5.05;;;4.90;99.90;;;;;;5094172;28;20031;-76
2023/04/27 04:10:09;;;;;;;18.80;5.03;;;5.00;99.90;;;;;;5094300;28;20032;-76
2023/04/27 04:12:35;;;;;;;14.57;5.95;;;5.00;99.90;;;;;;5094105;28;20366;-75
2023/04/27 04:15:02;;;;;;;14.38;4.45;;;5.00;99.90;;;;;;5094118;28;20015;-75
2023/04/27 04:17:28;;;;;;;12.57;5.43;;;5.10;99.90;;;;;;5092473;28;20020;-76
2023/04/27 04:19:54;;;;;;;15.57;6.20;;;5.10;99.90;;;;;;5094238;28;20030;-75
2023/04/27 04:22:20;;;;;;;17.13;5.30;;;5.10;99.90;;;;;;5093907;28;20057;-76
2023/04/27 04:24:46;;;;;;;26.02;9.18;;;5.10;99.90;;;;;;5094142;28;20016;-78
2023/04/27 04:27:12;;;;;;;22.75;8.60;;;5.10;99.90;;;;;;5094835;28;20020;-77
2023/04/27 04:29:38;;;;;;;19.00;7.75;;;5.20;99.90;;;;;;5095060;28;20363;-77
2023/04/27 04:32:04;;;;;;;17.70;6.78;;;5.30;99.90;;;;;;5094716;28;20032;-78
2023/04/27 04:34:30;;;;;;;20.38;5.38;;;5.30;99.90;;;;;;5094858;28;20024;-77
2023/04/27 04:36:56;;;;;;;12.70;5.90;;;5.30;99.90;;;;;;5094188;28;20016;-78
2023/04/27 04:39:22;;;;;;;14.40;6.47;;;5.30;99.90;;;;;;5093360;28;20020;-77
2023/04/27 04:41:48;;;;;;;14.52;6.78;;;5.40;99.90;;;;;;5094804;28;20028;-78
2023/04/27 04:44:19;;;;;;;17.55;5.70;;;5.50;99.90;;;;;;5094471;28;20031;-78
2023/04/27 04:46:45;;;;;;;33.40;8.85;;;5.60;99.90;;;;;;5093825;28;20074;-77
2023/04/27 04:49:11;;;;;;;23.50;8.18;;;5.70;99.90;;;;;;5092980;28;20107;-78
2023/04/27 04:51:44;;;;;;;12.48;6.45;;;5.80;99.90;;;;;;5093841;28;20110;-77
2023/04/27 04:54:10;;;;;;;13.18;4.75;;;5.90;99.90;;;;;;5074373;28;20028;-77
2023/04/27 04:56:36;;;;;;;14.23;4.78;;;6.00;99.90;;;;;;5076286;28;20072;-77
2023/04/27 04:59:02;;;;;;;10.80;4.00;;;6.10;99.90;;;;;;5094533;28;20107;-76
2023/04/27 05:01:28;;;;;;;11.30;4.07;;;6.10;99.90;;;;;;5093842;28;20085;-77
2023/04/27 05:03:54;;;;;;;10.80;4.47;;;6.20;99.90;;;;;;5094574;28;20535;-77
2023/04/27 05:06:20;;;;;;;12.63;5.28;;;6.40;99.90;;;;;;5093790;28;20047;-77
2023/04/27 05:08:46;;;;;;;10.20;3.55;;;6.50;99.90;;;;;;5094458;28;20054;-77
2023/04/27 05:11:11;;;;;;;8.15;4.18;;;6.60;99.90;;;;;;5093887;28;20085;-76
2023/04/27 05:13:39;;;;;;;9.30;4.70;;;6.80;99.90;;;;;;5093894;28;20055;-77
2023/04/27 05:16:05;;;;;;;12.65;3.47;;;7.00;99.90;;;;;;5094055;28;20028;-76
2023/04/27 05:18:31;;;;;;;10.43;5.35;;;7.10;99.90;;;;;;5094277;28;20061;-78
2023/04/27 05:20:57;;;;;;;8.02;3.72;;;7.30;99.90;;;;;;5093527;28;20453;-78
2023/04/27 05:23:23;;;;;;;5.90;4.25;;;7.40;99.90;;;;;;5075978;28;20028;-78
2023/04/27 05:25:48;;;;;;;7.57;4.53;;;7.60;99.90;;;;;;5094013;28;20024;-78
2023/04/27 05:28:15;;;;;;;9.30;3.45;;;7.80;99.90;;;;;;5093440;28;20024;-78
2023/04/27 05:30:40;;;;;;;5.55;2.95;;;7.90;99.90;;;;;;5094146;28;20028;-78
2023/04/27 05:33:06;;;;;;;14.65;5.85;;;8.00;99.90;;;;;;5076113;28;20026;-78
2023/04/27 05:35:32;;;;;;;8.75;4.57;;;8.20;99.90;;;;;;5093410;28;20498;-78
2023/04/27 05:37:59;;;;;;;7.57;4.55;;;8.40;99.90;;;;;;5093919;28;20024;-78
2023/04/27 05:40:24;;;;;;;7.63;5.03;;;8.50;99.90;;;;;;5093423;28;20084;-78
2023/04/27 05:42:51;;;;;;;6.03;2.50;;;8.70;99.90;;;;;;5093350;28;20050;-77
2023/04/27 05:45:17;;;;;;;7.90;3.42;;;8.80;99.90;;;;;;5093947;28;20038;-78
2023/04/27 05:47:42;;;;;;;7.75;3.22;;;8.90;99.90;;;;;;5093892;28;20514;-76
2023/04/27 05:50:08;;;;;;;7.53;4.50;;;8.90;99.90;;;;;;5093536;28;20020;-77
2023/04/27 05:52:35;;;;;;;7.88;2.70;;;9.00;99.90;;;;;;5094110;28;20035;-77
2023/04/27 05:55:00;;;;;;;15.27;7.50;;;9.10;99.90;;;;;;5093728;28;20024;-77
2023/04/27 05:57:26;;;;;;;5.88;3.45;;;9.20;99.90;;;;;;5093375;28;20462;-77
2023/04/27 05:59:52;;;;;;;4.75;2.65;;;9.10;97.60;;;;;;5093663;28;20085;-77
2023/04/27 06:02:18;;;;;;;5.22;3.15;;;9.10;96.20;;;;;;5093428;28;20099;-77
2023/04/27 06:04:45;;;;;;;12.70;5.95;;;9.10;96.60;;;;;;5093817;28;20024;-77
2023/04/27 06:07:13;;;;;;;8.63;4.75;;;9.20;96.30;;;;;;5093712;28;20020;-77
2023/04/27 06:09:40;;;;;;;5.28;2.83;;;9.20;97.30;;;;;;5093626;28;20016;-77
2023/04/27 06:12:07;;;;;;;9.50;3.97;;;9.40;98.00;;;;;;5093622;28;20118;-78
2023/04/27 06:14:34;;;;;;;5.47;3.40;;;9.60;97.70;;;;;;5093493;28;20047;-77
2023/04/27 06:17:01;;;;;;;6.25;3.45;;;9.60;96.20;;;;;;5093364;28;20024;-77
2023/04/27 06:19:26;;;;;;;8.27;3.97;;;9.70;96.80;;;;;;5093386;28;20020;-77
2023/04/27 06:21:54;;;;;;;6.20;3.75;;;9.80;96.60;;;;;;5093583;28;20500;-77
2023/04/27 06:24:20;;;;;;;8.25;4.40;;;10.00;96.00;;;;;;5096806;28;20081;-77
2023/04/27 06:26:45;;;;;;;8.50;3.28;;;10.00;94.10;;;;;;5097758;28;20035;-78
2023/04/27 06:29:11;;;;;;;9.73;4.85;;;10.10;92.90;;;;;;5097230;28;20020;-77
2023/04/27 06:31:37;;;;;;;7.15;4.32;;;10.20;92.00;;;;;;5097160;28;20074;-77
2023/04/27 06:34:03;;;;;;;8.43;3.90;;;10.20;92.40;;;;;;5097204;28;20441;-77
2023/04/27 06:36:30;;;;;;;10.10;5.93;;;10.30;91.20;;;;;;5096973;28;20429;-77
2023/04/27 06:38:56;;;;;;;17.08;14.43;;;10.30;91.50;;;;;;5096610;28;20052;-78
2023/04/27 06:43:20;;;;;;;6.82;3.03;;;10.60;89.90;;;;;;5111457;27;20411;-77
2023/04/27 06:45:46;;;;;;;7.18;3.03;;;10.90;91.80;;;;;;5091034;28;20040;-75
2023/04/27 06:48:12;;;;;;;8.00;3.08;;;11.00;90.10;;;;;;5091385;28;20107;-76
2023/04/27 06:50:37;;;;;;;8.52;3.17;;;11.10;88.30;;;;;;5090286;28;20028;-76
2023/04/27 06:53:03;;;;;;;6.22;2.70;;;11.30;88.60;;;;;;5090420;28;20032;-76
2023/04/27 06:55:29;;;;;;;6.05;3.10;;;11.40;86.00;;;;;;5090821;28;20032;-77
2023/04/27 06:57:55;;;;;;;6.75;2.55;;;11.60;83.10;;;;;;5090897;28;20032;-76
2023/04/27 07:00:21;;;;;;;4.45;2.30;;;11.60;79.80;;;;;;5089434;28;20417;-75
2023/04/27 07:02:46;;;;;;;5.32;2.45;;;11.70;79.50;;;;;;5089072;28;20024;-75
2023/04/27 07:05:12;;;;;;;8.05;3.03;;;11.80;78.30;;;;;;5086849;28;20020;-76
2023/04/27 07:07:38;;;;;;;5.40;1.95;;;12.00;79.90;;;;;;5090878;28;20443;-76
2023/04/27 07:10:04;;;;;;;10.35;2.78;;;12.10;78.80;;;;;;5089551;28;20032;-76
2023/04/27 07:12:30;;;;;;;7.05;2.42;;;12.20;77.30;;;;;;5089708;28;20036;-76
2023/04/27 07:14:56;;;;;;;2.75;1.92;;;12.30;76.50;;;;;;5090163;28;20027;-76
2023/04/27 07:17:21;;;;;;;3.60;2.00;;;12.50;75.20;;;;;;5090512;28;20028;-75
2023/04/27 07:19:47;;;;;;;4.25;2.00;;;12.60;74.00;;;;;;5090015;28;20028;-76
2023/04/27 07:22:14;;;;;;;4.88;2.20;;;12.70;71.40;;;;;;5090628;28;20028;-76
2023/04/27 07:24:40;;;;;;;5.75;2.35;;;12.80;70.30;;;;;;5090637;28;20026;-78
2023/04/27 07:27:07;;;;;;;3.78;1.55;;;12.90;68.50;;;;;;5090007;28;20154;-78
2023/04/27 07:29:32;;;;;;;6.38;2.67;;;13.10;73.10;;;;;;5090819;28;20035;-77
2023/04/27 07:31:58;;;;;;;3.10;1.55;;;13.20;66.10;;;;;;5090230;28;20107;-77
2023/04/27 07:34:24;;;;;;;3.17;1.67;;;13.20;67.60;;;;;;5089850;28;20020;-77
2023/04/27 07:36:52;;;;;;;2.33;1.25;;;13.30;62.10;;;;;;5089153;28;20060;-77
2023/04/27 07:39:19;;;;;;;4.68;2.00;;;13.40;61.10;;;;;;5090699;28;20028;-78
2023/04/27 07:41:45;;;;;;;5.93;1.33;;;13.60;62.30;;;;;;5089492;28;20079;-78
2023/04/27 07:44:11;;;;;;;4.10;1.58;;;13.80;57.90;;;;;;5088964;28;20419;-77
2023/04/27 07:46:37;;;;;;;4.13;1.50;;;13.80;56.20;;;;;;5088948;28;20024;-78
2023/04/27 07:49:03;;;;;;;4.82;2.03;;;14.10;55.60;;;;;;5089869;28;20107;-79
2023/04/27 07:51:29;;;;;;;6.88;2.70;;;14.10;55.90;;;;;;5088842;28;20119;-78
2023/04/27 07:53:55;;;;;;;3.65;2.28;;;14.50;59.00;;;;;;5080569;28;20024;-78
2023/04/27 07:56:20;;;;;;;4.93;2.88;;;14.40;54.40;;;;;;5076120;28;20024;-78
2023/04/27 07:58:46;;;;;;;4.40;2.05;;;14.40;53.90;;;;;;5076769;28;20074;-79
2023/04/27 08:01:12;;;;;;;3.45;2.28;;;14.50;53.90;;;;;;5075108;28;20029;-78
2023/04/27 08:03:38;;;;;;;4.88;2.22;;;14.70;52.70;;;;;;5076455;28;20086;-78
2023/04/27 08:06:04;;;;;;;7.75;2.60;;;14.90;51.00;;;;;;5075013;28;20094;-80
2023/04/27 08:08:29;;;;;;;11.32;2.50;;;15.10;51.90;;;;;;5075986;28;20025;-79
2023/04/27 08:10:55;;;;;;;3.92;2.17;;;15.30;52.00;;;;;;5076273;28;20016;-79
2023/04/27 08:13:21;;;;;;;6.20;2.53;;;15.30;50.30;;;;;;5074806;28;20028;-80
2023/04/27 08:15:47;;;;;;;3.53;2.25;;;15.20;46.70;;;;;;5075923;28;20394;-79
2023/04/27 08:18:12;;;;;;;2.67;1.98;;;15.30;46.80;;;;;;5076208;28;20099;-78
2023/04/27 08:20:38;;;;;;;3.88;2.15;;;15.20;45.70;;;;;;5074744;28;20078;-78
2023/04/27 08:23:04;;;;;;;3.13;1.90;;;15.40;46.90;;;;;;5074589;28;20025;-78
2023/04/27 08:25:30;;;;;;;5.55;2.45;;;15.50;46.40;;;;;;5074818;28;20111;-79
2023/04/27 08:27:55;;;;;;;4.80;2.50;;;15.50;46.60;;;;;;5074723;28;20413;-79
2023/04/27 08:30:21;;;;;;;6.75;2.05;;;15.50;47.00;;;;;;5075825;28;20016;-80
2023/04/27 08:32:47;;;;;;;6.32;2.10;;;15.60;44.60;;;;;;5074454;28;20443;-79
2023/04/27 08:35:13;;;;;;;6.53;2.95;;;15.70;43.70;;;;;;5074436;28;20086;-81
2023/04/27 08:37:39;;;;;;;5.80;3.10;;;15.50;43.20;;;;;;5075757;28;20039;-79
2023/04/27 08:40:08;;;;;;;11.77;5.25;;;15.60;45.90;;;;;;5075815;28;20020;-79
2023/04/27 08:42:34;;;;;;;5.28;3.83;;;15.80;46.10;;;;;;5073846;28;20044;-78
2023/04/27 08:45:00;;;;;;;5.03;2.30;;;16.00;46.00;;;;;;5075377;28;20070;-79
2023/04/27 08:47:26;;;;;;;3.80;2.80;;;15.90;41.50;;;;;;5075942;28;20406;-79
2023/04/27 08:49:52;;;;;;;4.38;2.50;;;16.20;43.90;;;;;;5075280;28;20028;-78
2023/04/27 08:52:17;;;;;;;6.07;2.50;;;16.20;40.20;;;;;;5074766;28;20455;-79
2023/04/27 08:54:43;;;;;;;4.32;2.50;;;16.20;42.80;;;;;;5075356;28;20028;-79
2023/04/27 08:57:14;;;;;;;4.53;3.17;;;16.20;43.60;;;;;;5074016;28;20372;-79
2023/04/27 08:59:40;;;;;;;6.25;3.05;;;16.30;42.20;;;;;;5074062;28;20447;-80
2023/04/27 09:02:06;;;;;;;3.38;2.88;;;16.20;41.30;;;;;;5073948;28;20036;-80
2023/04/27 09:04:39;;;;;;;8.60;3.72;;;16.40;40.80;;;;;;5074167;28;20025;-78
2023/04/27 09:07:16;;;;;;;5.22;3.05;;;16.30;38.60;;;;;;5075177;28;20025;-79
2023/04/27 09:09:43;;;;;;;2.70;2.10;;;16.50;39.80;;;;;;5075381;28;20498;-77
2023/04/27 09:12:20;;;;;;;3.60;2.65;;;16.30;39.00;;;;;;5074739;28;20024;-80
2023/04/27 09:14:59;;;;;;;6.53;2.42;;;16.50;41.80;;;;;;5073742;28;20374;-79
2023/04/27 09:17:27;;;;;;;4.20;2.90;;;16.60;38.40;;;;;;5075023;28;20439;-78
2023/04/27 09:20:12;;;;;;;4.05;2.42;;;16.90;41.20;;;;;;5073267;28;20020;-79
2023/04/27 09:22:48;;;;;;;4.10;2.58;;;16.60;35.10;;;;;;5074959;28;20048;-80
2023/04/27 09:25:30;;;;;;;4.20;2.85;;;16.80;38.40;;;;;;5073155;28;20052;-79
2023/04/27 09:27:57;;;;;;;3.30;2.55;;;16.80;37.10;;;;;;5074566;28;20020;-79
2023/04/27 09:30:24;;;;;;;3.25;2.30;;;16.60;35.90;;;;;;5074433;28;20021;-79
2023/04/27 09:32:53;;;;;;;2.88;2.55;;;16.90;36.20;;;;;;5072847;28;20025;-80
2023/04/27 09:35:23;;;;;;;5.22;3.10;;;17.00;33.50;;;;;;5074917;28;20028;-80
2023/04/27 09:37:53;;;;;;;5.53;3.33;;;17.30;38.00;;;;;;5074714;28;20025;-80
2023/04/27 09:40:26;;;;;;;3.83;2.75;;;17.60;35.70;;;;;;5072993;28;20422;-80
2023/04/27 09:42:58;;;;;;;4.82;2.85;;;17.50;35.50;;;;;;5073969;28;20045;-81
2023/04/27 09:45:24;;;;;;;4.20;2.63;;;17.50;33.90;;;;;;5074257;28;20024;-79
2023/04/27 09:47:50;;;;;;;5.57;3.05;;;17.60;34.30;;;;;;5074391;28;20111;-81
2023/04/27 09:50:16;;;;;;;8.23;2.70;;;17.40;34.60;;;;;;5074166;28;20462;-82
2023/04/27 09:52:42;;;;;;;3.80;2.35;;;17.50;34.70;;;;;;5073722;28;20032;-81
2023/04/27 09:55:12;;;;;;;4.38;2.40;;;17.50;33.70;;;;;;5072520;28;20170;-81
2023/04/27 09:58:05;;;;;;;6.55;2.80;;;17.50;33.40;;;;;;5067908;28;20024;-79
2023/04/27 10:01:00;;;;;;;4.45;2.67;;;17.40;33.60;;;;;;5072534;28;20515;-81
2023/04/27 10:03:56;;;;;;;2.70;2.40;;;17.50;33.40;;;;;;5012445;28;20414;-82
2023/04/27 10:06:49;;;;;;;3.83;2.63;;;17.50;34.70;;;;;;5074105;28;20477;-80
2023/04/27 10:09:22;;;;;;;3.88;2.63;;;17.70;32.20;;;;;;5073792;28;20091;-83
2023/04/27 10:11:48;;;;;;;3.78;2.85;;;17.90;34.20;;;;;;5072779;28;20035;-81
2023/04/27 10:14:20;;;;;;;2.95;2.75;;;17.60;33.30;;;;;;5073380;28;20082;-81
2023/04/27 10:16:57;;;;;;;3.33;2.88;;;17.70;31.10;;;;;;5073823;28;20043;-81
2023/04/27 10:19:24;;;;;;;3.97;3.10;;;17.70;34.50;;;;;;5074292;28;20028;-80
2023/04/27 10:21:56;;;;;;;4.07;2.60;;;17.90;33.70;;;;;;5073460;28;20040;-81
2023/04/27 10:24:51;;;;;;;;;;;18.00;34.50;;;;;;5074324;28;20047;-80
2023/04/27 10:27:21;;;;;;;3.35;3.05;;;18.10;32.90;;;;;;4992153;28;19916;-80
2023/04/27 10:29:50;;;;;;;4.00;2.90;;;18.40;33.50;;;;;;5003918;28;20125;-82
2023/04/27 10:32:25;;;;;;;4.00;3.03;;;18.40;33.10;;;;;;5009876;28;20080;-81
2023/04/27 10:35:02;;;;;;;3.00;2.70;;;18.20;31.60;;;;;;5011679;28;20132;-81
2023/04/27 10:37:40;;;;;;;2.90;2.70;;;18.20;31.70;;;;;;5011156;28;20042;-82
2023/04/27 10:40:18;;;;;;;2.97;2.78;;;18.20;32.70;;;;;;5011491;28;20030;-80
2023/04/27 10:42:45;;;;;;;3.47;2.78;;;18.30;33.00;;;;;;5011258;28;20481;-80
2023/04/27 10:45:12;;;;;;;3.53;2.83;;;18.60;37.50;;;;;;5011849;28;20030;-81
2023/04/27 10:47:42;;;;;;;3.00;2.65;;;18.60;31.40;;;;;;5011748;28;20049;-78
2023/04/27 10:50:13;;;;;;;3.42;3.05;;;18.50;30.60;;;;;;5011295;28;20038;-80
2023/04/27 10:52:47;;;;;;;3.45;3.15;;;18.60;30.70;;;;;;5011519;28;20033;-81
2023/04/27 10:55:18;;;;;;;3.42;3.03;;;19.00;34.00;;;;;;4994926;28;20056;-81
2023/04/27 10:57:54;;;;;;;5.63;3.00;;;19.00;31.30;;;;;;5011516;28;20080;-82
2023/04/27 11:00:27;;;;;;;3.60;3.30;;;19.00;32.60;;;;;;5011560;28;20392;-82
2023/04/27 11:02:54;;;;;;;3.45;3.10;;;18.90;30.60;;;;;;5006172;28;20125;-80
2023/04/27 11:05:24;;;;;;;3.40;2.90;;;18.90;31.60;;;;;;5071846;28;20347;-80
2023/04/27 11:07:50;;;;;;;6.70;4.07;;;19.00;30.40;;;;;;5072154;28;20024;-81
2023/04/27 11:10:19;;;;;;;6.53;4.43;;;19.30;30.80;;;;;;5071953;28;20021;-81
2023/04/27 11:12:45;;;;;;;4.78;4.18;;;19.00;30.30;;;;;;5073244;28;20032;-80
2023/04/27 11:15:13;;;;;;;5.47;4.57;;;18.30;32.10;;;;;;5073108;28;20421;-80
2023/04/27 11:17:39;;;;;;;4.65;4.15;;;18.10;33.80;;;;;;5071748;28;20378;-80
2023/04/27 11:20:07;;;;;;;4.88;4.47;;;17.90;33.00;;;;;;5073097;28;20033;-80
2023/04/27 11:22:34;;;;;;;8.63;4.78;;;18.40;31.00;;;;;;5073317;28;20535;-83
2023/04/27 11:25:00;;;;;;;6.45;5.93;;;18.40;33.00;;;;;;5073007;28;20056;-80
2023/04/27 11:27:38;;;;;;;7.90;4.72;;;18.80;32.20;;;;;;5073318;28;20052;-77
2023/04/27 11:30:06;;;;;;;9.55;6.53;;;17.90;31.80;;;;;;5077253;28;20447;-80
2023/04/27 11:32:32;;;;;;;8.40;5.22;;;17.70;31.70;;;;;;5076650;28;20025;-79
2023/04/27 11:34:58;;;;;;;8.95;5.55;;;18.00;31.80;;;;;;5075224;28;20028;-80
2023/04/27 11:37:26;;;;;;;10.77;6.25;;;17.80;31.20;;;;;;5075604;28;20081;-79
2023/04/27 11:39:53;;;;;;;5.10;4.60;;;18.40;35.20;;;;;;5076902;28;20024;-81
2023/04/27 11:42:27;;;;;;;4.78;4.38;;;18.10;31.90;;;;;;5075274;28;20048;-81
2023/04/27 11:45:00;;;;;;;5.15;4.65;;;17.80;33.40;;;;;;5077169;28;20020;-81
2023/04/27 11:47:28;;;;;;;7.82;5.28;;;17.50;32.90;;;;;;5075121;28;20032;-80
2023/04/27 11:50:03;;;;;;;6.05;4.80;;;17.90;35.30;;;;;;5075426;28;20020;-80
2023/04/27 11:52:34;;;;;;;4.63;4.22;;;18.70;35.10;;;;;;5076276;28;20032;-81
2023/04/27 11:55:05;;;;;;;7.97;5.22;;;19.20;32.70;;;;;;5076564;28;20031;-83
2023/04/27 11:57:34;;;;;;;8.73;5.73;;;18.20;31.10;;;;;;5075256;28;20083;-81
2023/04/27 12:00:09;;;;;;;5.22;4.45;;;17.40;32.50;;;;;;5075898;28;20378;-81
2023/04/27 12:02:36;;;;;;;7.28;5.38;;;16.90;33.30;;;;;;5076563;28;20042;-80
2023/04/27 12:05:06;;;;;;;6.28;4.53;;;17.90;35.20;;;;;;5075045;28;20550;-85
2023/04/27 12:07:32;;;;;;;7.53;4.97;;;17.80;31.10;;;;;;5074756;28;20027;-81
2023/04/27 12:09:58;;;;;;;5.70;4.88;;;17.90;30.90;;;;;;5075114;28;20032;-79
2023/04/27 12:12:23;;;;;;;5.10;4.68;;;19.00;33.00;;;;;;5074849;28;20478;-80
2023/04/27 12:14:50;;;;;;;6.00;4.57;;;19.60;32.80;;;;;;5074523;28;20504;-81
2023/04/27 12:17:17;;;;;;;5.15;4.43;;;20.00;32.80;;;;;;5075981;28;20367;-80
2023/04/27 12:19:42;;;;;;;5.70;5.30;;;19.90;29.80;;;;;;5075920;28;20026;-81
2023/04/27 12:22:09;;;;;;;5.85;5.03;;;;;;;;;;5074529;28;20444;-79
2023/04/27 12:24:36;;;;;;;7.28;4.80;;;20.70;30.30;;;;;;5076160;28;20456;-81
2023/04/27 12:27:02;;;;;;;5.70;5.20;;;20.30;28.60;;;;;;5076300;28;20055;-79
2023/04/27 12:29:28;;;;;;;4.10;3.70;;;20.20;29.20;;;;;;5074368;28;20051;-79
2023/04/27 12:31:54;;;;;;;6.38;5.70;;;19.80;28.80;;;;;;5074540;28;20056;-79
2023/04/27 12:34:20;;;;;;;5.93;5.13;;;19.20;29.30;;;;;;5074140;28;20032;-80
2023/04/27 12:36:46;;;;;;;9.18;7.28;;;18.80;30.40;;;;;;5074547;28;20028;-80
2023/04/27 12:39:24;;;;;;;6.93;5.63;;;18.10;30.00;;;;;;5075872;28;20032;-80
2023/04/27 12:41:50;;;;;;;11.40;7.03;;;17.70;32.10;;;;;;5074162;28;20113;-78
2023/04/27 12:44:17;;;;;;;9.40;6.72;;;17.10;32.40;;;;;;5074343;28;20021;-80
2023/04/27 12:46:44;;;;;;;17.63;6.10;;;17.20;33.80;;;;;;5075847;28;20051;-79
2023/04/27 12:49:11;;;;;;;5.45;4.47;;;17.20;35.10;;;;;;5075521;28;20363;-81
2023/04/27 12:51:37;;;;;;;5.20;4.70;;;16.90;33.50;;;;;;5074411;28;20040;-82